Latest Weather Observations for Tarcoola

IDS60801

Issued at 3:41 pm CST Tuesday 20 April 2021 (issued every 10 minutes, with the page automatically refreshed every 10 minutes)

About weather observations | Map of weather stations | Latest weather observations for SA | Other Formats
Station Details ID: 016098 Name: TARCOOLA AERO Lat: -30.71 Lon: 134.58 Height: 123.0 m
Data from the previous 72 hours. | See also: Recent months at Tarcoola
Date/Time
CST
Temp
°C
App
Temp
°C
Dew
Point
°C
Rel
Hum
%
Delta-T
°C
Wind Press
QNH
hPa
Press
MSL
hPa
Rain since
9am
mm
Dir  Spd
km/h
Gust
km/h
Spd
kts
Gust
kts
20/03:30pm 24.5 19.3 2.6 24 10.6 SW 19 26 10 14 1016.6 1016.3 0.0
20/03:00pm 24.7 19.5 2.2 23 10.8 WSW 19 28 10 15 1016.6 1016.3 0.0
20/02:30pm 24.1 19.2 2.3 24 10.4 SW 17 26 9 14 1016.7 1016.4 0.0
20/02:00pm 24.3 20.1 1.9 23 10.7 S 13 20 7 11 1016.9 1016.6 0.0
20/01:30pm 24.6 19.3 2.1 23 10.8 SW 19 26 10 14 1017.3 1017.0 0.0
20/01:00pm 23.6 19.1 1.9 24 10.3 SW 15 26 8 14 1017.6 1017.3 0.0
20/12:30pm 23.8 18.4 1.4 23 10.5 SSW 19 26 10 14 1018.0 1017.7 0.0
20/12:00pm 22.5 18.1 2.6 27 9.5 SW 15 26 8 14 1018.5 1018.2 0.0
20/11:30am 21.8 17.8 3.0 29 9.0 SW 13 20 7 11 1018.8 1018.5 0.0
20/11:00am 21.4 18.6 3.1 30 8.7 SW 7 20 4 11 1019.1 1018.8 0.0
20/10:30am 20.0 16.8 3.3 33 7.9 SW 9 15 5 8 1019.2 1018.9 0.0
20/10:00am 18.7 16.2 4.5 39 6.8 SSW 7 13 4 7 1019.5 1019.2 0.0
20/09:30am 16.7 13.4 4.4 44 5.8 SSW 11 15 6 8 1019.5 1019.2 0.0
20/09:00am 14.6 10.5 4.3 50 4.8 SW 15 20 8 11 1019.6 1019.3 0.0
20/08:30am 13.1 9.2 3.5 52 4.3 SW 13 20 7 11 1019.2 1018.9 0.0
20/08:00am 10.9 9.0 2.7 57 3.6 SW 2 9 1 5 1018.7 1018.4 0.0
20/07:30am 7.6 5.6 -0.4 57 3.1 CALM 0 0 0 0 1018.4 1018.1 0.0
20/07:00am 6.1 3.9 -1.5 58 2.8 CALM 0 0 0 0 1017.9 1017.6 0.0
20/06:30am 6.3 4.1 -1.6 57 2.9 CALM 0 0 0 0 1017.7 1017.4 0.0
20/06:00am 6.9 4.8 -0.5 59 2.9 CALM 0 0 0 0 1017.4 1017.1 0.0
20/05:30am 6.8 4.4 -0.4 60 2.8 SSE 2 7 1 4 1017.2 1016.9 0.0
20/05:00am 7.3 5.3 -0.4 58 3.0 CALM 0 0 0 0 1016.9 1016.6 0.0
20/04:30am 7.7 5.8 0.4 60 2.9 CALM 0 0 0 0 1017.0 1016.7 0.0
20/04:00am 8.4 5.8 1.1 60 3.0 N 4 9 2 5 1017.0 1016.7 0.0
20/03:30am 8.2 4.6 0.9 60 3.0 WSW 9 9 5 5 1017.1 1016.8 0.0
20/03:00am 9.0 5.8 1.0 57 3.3 N 7 9 4 5 1016.9 1016.6 0.0
20/02:30am 10.0 8.2 1.4 55 3.6 CALM 0 7 0 4 1016.8 1016.5 0.0
20/02:00am 10.1 6.8 2.2 58 3.4 SW 9 11 5 6 1017.1 1016.8 0.0
20/01:30am 10.4 7.0 2.0 56 3.6 WSW 9 9 5 5 1017.3 1017.0 0.0
20/01:00am 10.9 7.9 1.7 53 3.9 WSW 7 9 4 5 1017.3 1017.0 0.0
20/12:30am 11.9 8.2 2.1 51 4.2 SW 11 11 6 6 1017.4 1017.1 0.0
20/12:00am 13.3 10.0 2.5 48 4.8 SW 9 11 5 6 1017.5 1017.2 0.0
 
Date/Time
CST
Temp
°C
App
Temp
°C
Dew
Point
°C
Rel
Hum
%
Delta-T
°C
Wind Press
QNH
hPa
Press
MSL
hPa
Rain since
9am
mm
Dir  Spd
km/h
Gust
km/h
Spd
kts
Gust
kts
19/11:30pm 13.5 10.5 2.1 46 5.0 SW 7 9 4 5 1017.5 1017.2 0.0
19/11:00pm 15.0 11.7 2.5 43 5.6 SSW 9 13 5 7 1017.5 1017.2 0.0
19/10:30pm 16.5 12.5 2.9 40 6.2 S 13 17 7 9 1017.4 1017.1 0.0
19/10:00pm 17.4 11.7 2.6 37 6.8 S 22 32 12 17 1017.3 1017.0 0.0
19/09:30pm 14.7 11.2 -1.4 33 6.6 ENE 7 9 4 5 1016.6 1016.3 0.0
19/09:00pm 15.4 11.7 -2.5 29 7.2 NE 7 9 4 5 1016.7 1016.4 0.0
19/08:30pm 16.2 12.8 -0.9 31 7.2 NE 7 9 4 5 1016.6 1016.3 0.0
19/08:00pm 16.4 12.9 -1.2 30 7.4 NNE 7 9 4 5 1016.5 1016.2 0.0
19/07:30pm 17.3 13.0 -1.4 28 7.9 NNE 11 13 6 7 1016.3 1016.0 0.0
19/07:00pm 18.9 15.1 -1.0 26 8.6 N 9 11 5 6 1016.4 1016.1 0.0
19/06:30pm 21.0 16.9 -0.3 24 9.5 NNW 11 13 6 7 1016.1 1015.8 0.0
19/06:00pm 22.9 19.1 -0.6 21 10.6 NW 9 13 5 7 1016.0 1015.7 0.0
19/05:30pm 24.0 18.7 -0.3 20 11.1 NW 17 26 9 14 1015.9 1015.6 0.0
19/05:00pm 24.2 19.3 -0.2 20 11.2 NNW 15 24 8 13 1015.8 1015.4 0.0
19/04:30pm 25.0 20.5 -0.2 19 11.6 NNW 13 20 7 11 1015.9 1015.6 0.0
19/04:00pm 24.9 20.5 0.4 20 11.4 NW 13 26 7 14 1016.1 1015.8 0.0
19/03:30pm 24.9 19.7 0.4 20 11.4 NNW 17 30 9 16 1016.3 1016.0 0.0
19/03:00pm 23.6 18.5 0.7 22 10.6 NW 17 24 9 13 1016.4 1016.1 0.0
19/02:30pm 24.3 19.6 0.6 21 11.0 NW 15 28 8 15 1016.5 1016.2 0.0
19/02:00pm 23.9 18.7 0.3 21 10.9 NW 17 30 9 16 1016.9 1016.6 0.0
19/01:30pm 24.7 20.0 0.9 21 11.2 NNW 15 24 8 13 1017.5 1017.2 0.0
19/01:00pm 24.2 18.6 1.2 22 10.8 NNW 20 28 11 15 1018.2 1017.9 0.0
19/12:30pm 23.8 18.4 1.4 23 10.5 NW 19 28 10 15 1018.9 1018.6 0.0
19/12:00pm 23.1 18.1 1.5 24 10.1 N 17 26 9 14 1019.4 1019.1 0.0
19/11:30am 22.9 17.4 1.9 25 9.9 N 20 28 11 15 1020.0 1019.7 0.0
19/11:00am 22.2 16.8 2.3 27 9.4 N 20 30 11 16 1020.6 1020.2 0.0
19/10:30am 21.3 16.6 3.0 30 8.7 N 17 24 9 13 1020.9 1020.5 0.0
19/10:00am 20.1 15.4 3.3 33 8.0 N 17 24 9 13 1021.2 1020.8 0.0
19/09:30am 19.3 14.8 4.3 37 7.2 NNE 17 24 9 13 1021.4 1021.0 0.0
19/09:00am 17.6 13.9 4.6 42 6.2 NNE 13 17 7 9 1021.5 1021.1 0.0
19/08:30am 15.2 12.1 3.7 46 5.3 NE 9 11 5 6 1021.4 1021.0 0.0
19/08:00am 13.2 10.6 3.3 51 4.4 NE 6 7 3 4 1021.2 1020.8 0.0
19/07:30am 8.8 5.6 0.5 56 3.3 ENE 7 7 4 4 1021.0 1020.6 0.0
19/07:00am 6.1 2.7 -2.2 55 3.0 ENE 6 6 3 3 1021.0 1020.6 0.0
19/06:30am 6.1 3.9 -1.8 57 2.9 CALM 0 0 0 0 1020.9 1020.5 0.0
19/06:00am 6.2 4.0 -1.9 56 3.0 CALM 0 0 0 0 1020.8 1020.4 0.0
19/05:30am 6.8 4.6 -1.6 55 3.1 CALM 0 0 0 0 1020.9 1020.5 0.0
19/05:00am 7.4 5.3 -0.5 57 3.1 CALM 0 0 0 0 1020.9 1020.5 0.0
19/04:30am 8.0 4.8 -0.2 56 3.2 E 6 7 3 4 1020.9 1020.5 0.0
19/04:00am 9.0 6.8 1.0 57 3.3 ESE 2 7 1 4 1021.0 1020.6 0.0
19/03:30am 7.9 5.1 -0.1 57 3.1 SW 4 7 2 4 1021.1 1020.7 0.0
19/03:00am 8.5 5.2 0.2 56 3.3 WSW 7 9 4 5 1021.3 1020.9 0.0
19/02:30am 8.8 5.1 0.0 54 3.5 WSW 9 11 5 6 1021.6 1021.2 0.0
19/02:00am 9.9 6.3 0.8 53 3.7 SW 9 11 5 6 1021.9 1021.5 0.0
19/01:30am 10.6 7.0 0.6 50 4.1 W 9 9 5 5 1022.1 1021.7 0.0
19/01:00am 11.6 8.1 1.5 50 4.3 SW 9 15 5 8 1022.2 1021.8 0.0
19/12:30am 12.0 8.6 1.6 49 4.4 SSW 9 13 5 7 1022.3 1021.9 0.0
19/12:00am 11.5 8.1 -0.6 43 4.9 ENE 7 9 4 5 1022.2 1021.8 0.0
 
Date/Time
CST
Temp
°C
App
Temp
°C
Dew
Point
°C
Rel
Hum
%
Delta-T
°C
Wind Press
QNH
hPa
Press
MSL
hPa
Rain since
9am
mm
Dir  Spd
km/h
Gust
km/h
Spd
kts
Gust
kts
18/11:30pm 11.4 8.3 -0.1 45 4.7 ENE 6 7 3 4 1022.2 1021.8 0.0
18/11:00pm 12.3 10.4 0.4 44 5.0 CALM 0 0 0 0 1022.4 1022.0 0.0
18/10:30pm 14.7 11.7 1.9 42 5.6 ENE 7 9 4 5 1022.7 1022.3 0.0
18/10:00pm 13.3 10.6 0.3 41 5.5 ENE 4 9 2 5 1022.9 1022.6 0.0
18/09:30pm 14.9 11.4 1.4 40 5.9 E 9 11 5 6 1022.9 1022.6 0.0
18/09:00pm 15.9 12.4 1.2 37 6.4 E 9 11 5 6 1023.1 1022.8 0.0
18/08:30pm 17.0 13.1 1.0 34 7.0 E 11 11 6 6 1023.1 1022.8 0.0
18/08:00pm 17.6 13.3 1.2 33 7.3 ESE 13 17 7 9 1023.1 1022.8 0.0
18/07:30pm 17.5 14.4 0.2 31 7.5 ESE 6 7 3 4 1023.1 1022.8 0.0
18/07:00pm 18.9 16.2 0.0 28 8.3 WNW 4 6 2 3 1023.1 1022.8 0.0
18/06:30pm 20.4 17.5 1.3 28 8.7 W 6 7 3 4 1022.9 1022.6 0.0
18/06:00pm 21.8 18.7 1.5 26 9.4 WSW 7 9 4 5 1022.8 1022.4 0.0
18/05:30pm 22.9 20.4 1.3 24 10.0 SSW 4 9 2 5 1022.7 1022.3 0.0
18/05:00pm 23.2 19.6 0.3 22 10.5 SSW 9 15 5 8 1022.7 1022.3 0.0
18/04:30pm 23.4 19.5 1.1 23 10.4 SSW 11 17 6 9 1022.7 1022.3 0.0
18/04:00pm 23.6 19.4 1.9 24 10.3 SW 13 17 7 9 1022.8 1022.4 0.0
18/03:30pm 23.6 20.7 2.4 25 10.1 ESE 7 11 4 6 1023.0 1022.7 0.0
18/03:00pm 24.0 20.3 2.2 24 10.4 NW 11 17 6 9 1023.3 1023.0 0.0
18/02:30pm 22.9 19.6 2.4 26 9.7 WNW 9 20 5 11 1023.4 1023.1 0.0
18/02:00pm 22.6 19.7 2.7 27 9.5 SW 7 13 4 7 1024.0 1023.7 0.0
18/01:30pm 22.8 19.9 2.8 27 9.5 WNW 7 13 4 7 1024.5 1024.2 0.0
18/01:00pm 21.8 18.5 2.5 28 9.1 SSE 9 15 5 8 1025.2 1024.9 0.0
18/12:30pm 21.6 18.7 2.8 29 8.9 WSW 7 11 4 6 1025.6 1025.3 0.0
18/12:00pm 21.6 18.4 3.3 30 8.7 SSW 9 17 5 9 1026.2 1025.9 0.0
18/11:30am 21.1 16.9 3.8 32 8.3 NNE 15 22 8 12 1026.7 1026.4 0.0
18/11:00am 20.5 15.9 3.7 33 8.1 E 17 24 9 13 1026.9 1026.6 0.0
18/10:30am 19.8 14.9 4.3 36 7.4 ENE 19 26 10 14 1027.3 1027.0 0.0
18/10:00am 18.7 14.8 5.5 42 6.5 E 15 20 8 11 1027.4 1027.1 0.0
18/09:30am 17.6 13.4 5.9 46 5.7 E 17 22 9 12 1027.6 1027.3 0.0
18/09:00am 17.1 13.5 6.9 51 5.1 E 15 20 8 11 1027.6 1027.3 0.0
18/08:30am 14.2 13.6 7.3 63 3.4 CALM 0 6 0 3 1027.7 1027.4 0.0
18/08:00am 10.9 9.0 6.6 75 2.0 WSW 6 7 3 4 1027.4 1027.1 0.0
18/07:30am 8.7 6.5 6.2 84 1.1 SW 7 7 4 4 1027.2 1026.9 0.0
18/07:00am 7.3 4.1 5.1 86 1.0 WSW 11 11 6 6 1027.0 1026.7 0.0
18/06:30am 7.2 4.0 4.9 85 1.0 WSW 11 11 6 6 1026.9 1026.6 0.0
18/06:00am 7.4 4.5 4.7 83 1.2 SW 9 11 5 6 1026.7 1026.4 0.0
18/05:30am 8.1 4.9 5.2 82 1.3 SW 11 11 6 6 1026.7 1026.4 0.0
18/05:00am 8.6 5.9 5.5 81 1.4 SW 9 11 5 6 1026.8 1026.5 0.0
18/04:30am 8.6 5.9 5.4 80 1.4 SW 9 9 5 5 1026.6 1026.3 0.0
18/04:00am 9.0 6.3 5.4 78 1.6 SW 9 11 5 6 1026.5 1026.2 0.0
18/03:30am 9.4 7.0 5.4 76 1.8 SW 7 9 4 5 1026.7 1026.4 0.0
18/03:00am 10.2 7.2 5.8 74 2.0 SW 11 13 6 7 1026.9 1026.6 0.0
18/02:30am 10.7 7.7 6.1 73 2.1 SW 11 13 6 7 1027.1 1026.8 0.0
18/02:00am 11.2 8.2 6.1 71 2.4 SSW 11 13 6 7 1027.3 1027.0 0.0
18/01:30am 11.4 8.3 5.7 68 2.6 WSW 11 11 6 6 1027.5 1027.2 0.0
18/01:00am 12.0 9.3 5.6 65 3.0 SW 9 11 5 6 1027.6 1027.3 0.0
18/12:30am 13.4 10.4 6.0 61 3.5 SSW 11 17 6 9 1027.5 1027.2 0.0
18/12:00am 14.2 10.5 6.3 59 3.8 SSW 15 20 8 11 1027.6 1027.3 0.0
 
Date/Time
CST
Temp
°C
App
Temp
°C
Dew
Point
°C
Rel
Hum
%
Delta-T
°C
Wind Press
QNH
hPa
Press
MSL
hPa
Rain since
9am
mm
Dir  Spd
km/h
Gust
km/h
Spd
kts
Gust
kts
17/11:30pm 14.8 10.3 6.1 56 4.2 S 19 24 10 13 1027.8 1027.5 0.0
17/11:00pm 15.4 10.7 5.9 53 4.6 S 20 26 11 14 1028.0 1027.7 0.0
17/10:30pm 15.9 11.1 5.8 51 4.9 S 20 28 11 15 1028.0 1027.7 0.0
17/10:00pm 16.5 11.7 5.5 48 5.3 S 20 32 11 17 1027.9 1027.6 0.0
17/09:30pm 16.7 12.0 3.4 41 6.1 SSW 17 20 9 11 1027.7 1027.4 0.0
17/09:00pm 16.6 12.9 2.2 38 6.5 SSW 11 13 6 7 1027.6 1027.3 0.0
17/08:30pm 17.7 13.6 2.1 35 7.0 S 13 15 7 8 1027.4 1027.1 0.0
17/08:00pm 18.0 13.8 1.5 33 7.4 SSW 13 15 7 8 1027.3 1027.0 0.0
17/07:30pm 19.2 14.9 1.2 30 8.1 SSW 13 15 7 8 1027.0 1026.7 0.0
17/07:00pm 20.2 15.5 1.1 28 8.7 SSW 15 20 8 11 1027.0 1026.7 0.0
17/06:30pm 20.8 16.4 0.6 26 9.1 SSW 13 17 7 9 1026.9 1026.6 0.0
17/06:00pm 22.0 16.5 0.5 24 9.8 SSW 19 24 10 13 1026.6 1026.3 0.0
17/05:30pm 22.8 17.8 1.2 24 10.0 SSW 17 26 9 14 1026.2 1025.9 0.0
17/05:00pm 23.5 18.5 1.2 23 10.4 SSW 17 24 9 13 1026.1 1025.8 0.0
17/04:30pm 23.8 18.8 1.4 23 10.5 SSW 17 28 9 15 1026.2 1025.9 0.0
17/04:00pm 24.0 19.7 3.3 26 10.1 SSW 15 26 8 14 1026.2 1025.9 0.0

Other formats

Comma delimited format used in spreadsheet applications
http://www.bom.gov.au/fwo/IDS60801/IDS60801.94655.axf

JavaScript Object Notation format (JSON) in row-major order
http://www.bom.gov.au/fwo/IDS60801/IDS60801.94655.json

Data quality

Most of these data are generated automatically and are frequently updated. Quality checks on data are not normally performed. It is possible for incorrect values to appear. Refer to information at About Latest Weather Observations and please check the disclaimer before using these data.